sensor_id;sensor_type;location;lat;lon;timestamp;P1;durP1;ratioP1;P2;durP2;ratioP2
37593;SDS011;23441;50.856;6.076;2023-04-25T00:00:04;12.60;;;5.10;;
37593;SDS011;23441;50.856;6.076;2023-04-25T00:02:32;18.13;;;6.88;;
37593;SDS011;23441;50.856;6.076;2023-04-25T00:04:59;17.77;;;5.53;;
37593;SDS011;23441;50.856;6.076;2023-04-25T00:07:26;17.65;;;5.70;;
37593;SDS011;23441;50.856;6.076;2023-04-25T00:09:52;12.57;;;4.88;;
37593;SDS011;23441;50.856;6.076;2023-04-25T00:12:18;16.13;;;5.65;;
37593;SDS011;23441;50.856;6.076;2023-04-25T00:14:44;20.17;;;5.80;;
37593;SDS011;23441;50.856;6.076;2023-04-25T00:17:10;17.70;;;5.85;;
37593;SDS011;23441;50.856;6.076;2023-04-25T00:19:36;15.63;;;5.03;;
37593;SDS011;23441;50.856;6.076;2023-04-25T00:22:02;19.77;;;6.03;;
37593;SDS011;23441;50.856;6.076;2023-04-25T00:24:28;14.90;;;4.97;;
37593;SDS011;23441;50.856;6.076;2023-04-25T00:26:54;17.13;;;4.82;;
37593;SDS011;23441;50.856;6.076;2023-04-25T00:29:19;15.75;;;5.60;;
37593;SDS011;23441;50.856;6.076;2023-04-25T00:31:45;15.25;;;5.05;;
37593;SDS011;23441;50.856;6.076;2023-04-25T00:34:10;11.82;;;4.82;;
37593;SDS011;23441;50.856;6.076;2023-04-25T00:36:36;13.70;;;5.13;;
37593;SDS011;23441;50.856;6.076;2023-04-25T00:39:02;11.77;;;4.97;;
37593;SDS011;23441;50.856;6.076;2023-04-25T00:41:29;17.63;;;5.65;;
37593;SDS011;23441;50.856;6.076;2023-04-25T00:43:55;15.65;;;5.22;;
37593;SDS011;23441;50.856;6.076;2023-04-25T00:46:22;15.27;;;5.15;;
37593;SDS011;23441;50.856;6.076;2023-04-25T00:48:48;17.80;;;5.78;;
37593;SDS011;23441;50.856;6.076;2023-04-25T00:51:16;19.30;;;5.22;;
37593;SDS011;23441;50.856;6.076;2023-04-25T00:53:44;16.60;;;5.15;;
37593;SDS011;23441;50.856;6.076;2023-04-25T00:56:11;15.02;;;5.32;;
37593;SDS011;23441;50.856;6.076;2023-04-25T00:58:37;12.55;;;5.78;;
37593;SDS011;23441;50.856;6.076;2023-04-25T01:01:03;17.25;;;5.55;;
37593;SDS011;23441;50.856;6.076;2023-04-25T01:03:31;13.32;;;5.50;;
37593;SDS011;23441;50.856;6.076;2023-04-25T01:06:00;16.85;;;5.75;;
37593;SDS011;23441;50.856;6.076;2023-04-25T01:08:26;14.38;;;5.50;;
37593;SDS011;23441;50.856;6.076;2023-04-25T01:10:52;15.93;;;5.68;;
37593;SDS011;23441;50.856;6.076;2023-04-25T01:13:18;11.30;;;5.28;;
37593;SDS011;23441;50.856;6.076;2023-04-25T01:15:44;16.80;;;6.22;;
37593;SDS011;23441;50.856;6.076;2023-04-25T01:18:10;14.63;;;5.43;;
37593;SDS011;23441;50.856;6.076;2023-04-25T01:20:37;15.50;;;5.50;;
37593;SDS011;23441;50.856;6.076;2023-04-25T01:23:03;20.75;;;6.30;;
37593;SDS011;23441;50.856;6.076;2023-04-25T01:25:32;18.10;;;6.18;;
37593;SDS011;23441;50.856;6.076;2023-04-25T01:27:58;20.35;;;6.65;;
37593;SDS011;23441;50.856;6.076;2023-04-25T01:30:25;12.15;;;5.15;;
37593;SDS011;23441;50.856;6.076;2023-04-25T01:32:52;16.83;;;6.15;;
37593;SDS011;23441;50.856;6.076;2023-04-25T01:35:20;17.15;;;6.38;;
37593;SDS011;23441;50.856;6.076;2023-04-25T01:37:48;21.08;;;6.28;;
37593;SDS011;23441;50.856;6.076;2023-04-25T01:40:14;18.77;;;5.97;;
37593;SDS011;23441;50.856;6.076;2023-04-25T01:42:41;16.42;;;5.93;;
37593;SDS011;23441;50.856;6.076;2023-04-25T01:45:09;22.13;;;6.60;;
37593;SDS011;23441;50.856;6.076;2023-04-25T01:47:36;16.02;;;5.70;;
37593;SDS011;23441;50.856;6.076;2023-04-25T01:50:02;18.38;;;6.28;;
37593;SDS011;23441;50.856;6.076;2023-04-25T01:52:29;15.15;;;6.30;;
37593;SDS011;23441;50.856;6.076;2023-04-25T01:54:55;16.83;;;5.88;;
37593;SDS011;23441;50.856;6.076;2023-04-25T01:57:22;18.95;;;5.65;;
37593;SDS011;23441;50.856;6.076;2023-04-25T01:59:48;17.98;;;6.18;;
37593;SDS011;23441;50.856;6.076;2023-04-25T02:02:14;19.95;;;6.35;;
37593;SDS011;23441;50.856;6.076;2023-04-25T02:04:40;22.15;;;6.57;;
37593;SDS011;23441;50.856;6.076;2023-04-25T02:07:06;18.42;;;6.75;;
37593;SDS011;23441;50.856;6.076;2023-04-25T02:09:31;17.10;;;5.65;;
37593;SDS011;23441;50.856;6.076;2023-04-25T02:11:57;19.48;;;5.90;;
37593;SDS011;23441;50.856;6.076;2023-04-25T02:14:23;20.60;;;5.35;;
37593;SDS011;23441;50.856;6.076;2023-04-25T02:16:49;23.65;;;6.75;;
37593;SDS011;23441;50.856;6.076;2023-04-25T02:19:16;19.13;;;6.63;;
37593;SDS011;23441;50.856;6.076;2023-04-25T02:21:41;17.90;;;5.45;;
37593;SDS011;23441;50.856;6.076;2023-04-25T02:24:07;15.40;;;5.40;;
37593;SDS011;23441;50.856;6.076;2023-04-25T02:26:33;16.08;;;5.68;;
37593;SDS011;23441;50.856;6.076;2023-04-25T02:28:59;18.33;;;6.30;;
37593;SDS011;23441;50.856;6.076;2023-04-25T02:31:24;19.17;;;5.53;;
37593;SDS011;23441;50.856;6.076;2023-04-25T02:33:51;17.42;;;5.75;;
37593;SDS011;23441;50.856;6.076;2023-04-25T02:36:16;23.52;;;5.65;;
37593;SDS011;23441;50.856;6.076;2023-04-25T02:38:42;24.23;;;6.55;;
37593;SDS011;23441;50.856;6.076;2023-04-25T02:41:07;18.73;;;5.55;;
37593;SDS011;23441;50.856;6.076;2023-04-25T02:43:33;20.60;;;6.25;;
37593;SDS011;23441;50.856;6.076;2023-04-25T02:45:58;21.63;;;5.93;;
37593;SDS011;23441;50.856;6.076;2023-04-25T02:48:24;17.80;;;5.50;;
37593;SDS011;23441;50.856;6.076;2023-04-25T02:50:50;18.30;;;5.68;;
37593;SDS011;23441;50.856;6.076;2023-04-25T02:53:15;19.95;;;6.15;;
37593;SDS011;23441;50.856;6.076;2023-04-25T02:55:41;15.90;;;5.97;;
37593;SDS011;23441;50.856;6.076;2023-04-25T02:58:06;17.08;;;5.45;;
37593;SDS011;23441;50.856;6.076;2023-04-25T03:00:32;18.05;;;6.03;;
37593;SDS011;23441;50.856;6.076;2023-04-25T03:02:58;23.35;;;6.30;;
37593;SDS011;23441;50.856;6.076;2023-04-25T03:05:23;16.88;;;5.47;;
37593;SDS011;23441;50.856;6.076;2023-04-25T03:07:49;16.17;;;5.85;;
37593;SDS011;23441;50.856;6.076;2023-04-25T03:10:15;17.08;;;5.60;;
37593;SDS011;23441;50.856;6.076;2023-04-25T03:12:40;16.13;;;7.20;;
37593;SDS011;23441;50.856;6.076;2023-04-25T03:15:06;15.43;;;5.32;;
37593;SDS011;23441;50.856;6.076;2023-04-25T03:17:32;27.67;;;6.68;;
37593;SDS011;23441;50.856;6.076;2023-04-25T03:19:58;19.73;;;5.50;;
37593;SDS011;23441;50.856;6.076;2023-04-25T03:22:23;18.30;;;5.55;;
37593;SDS011;23441;50.856;6.076;2023-04-25T03:24:49;23.48;;;6.07;;
37593;SDS011;23441;50.856;6.076;2023-04-25T03:27:15;20.35;;;5.75;;
37593;SDS011;23441;50.856;6.076;2023-04-25T03:29:41;19.73;;;5.60;;
37593;SDS011;23441;50.856;6.076;2023-04-25T03:32:07;16.63;;;5.35;;
37593;SDS011;23441;50.856;6.076;2023-04-25T03:34:32;15.30;;;5.30;;
37593;SDS011;23441;50.856;6.076;2023-04-25T03:36:58;14.50;;;5.40;;
37593;SDS011;23441;50.856;6.076;2023-04-25T03:39:23;15.15;;;6.47;;
37593;SDS011;23441;50.856;6.076;2023-04-25T03:41:49;13.07;;;5.68;;
37593;SDS011;23441;50.856;6.076;2023-04-25T03:44:15;16.10;;;5.63;;
37593;SDS011;23441;50.856;6.076;2023-04-25T03:46:40;23.60;;;6.20;;
37593;SDS011;23441;50.856;6.076;2023-04-25T03:49:06;22.50;;;5.18;;
37593;SDS011;23441;50.856;6.076;2023-04-25T03:51:31;16.20;;;5.38;;
37593;SDS011;23441;50.856;6.076;2023-04-25T03:53:57;13.25;;;4.88;;
37593;SDS011;23441;50.856;6.076;2023-04-25T03:56:23;24.50;;;5.72;;
37593;SDS011;23441;50.856;6.076;2023-04-25T03:58:48;21.92;;;5.47;;
37593;SDS011;23441;50.856;6.076;2023-04-25T04:01:14;20.55;;;5.57;;
37593;SDS011;23441;50.856;6.076;2023-04-25T04:03:40;21.92;;;5.95;;
37593;SDS011;23441;50.856;6.076;2023-04-25T04:06:06;20.08;;;5.50;;
37593;SDS011;23441;50.856;6.076;2023-04-25T04:08:32;21.45;;;5.82;;
37593;SDS011;23441;50.856;6.076;2023-04-25T04:10:58;20.83;;;6.28;;
37593;SDS011;23441;50.856;6.076;2023-04-25T04:13:27;23.73;;;5.63;;
37593;SDS011;23441;50.856;6.076;2023-04-25T04:15:53;24.38;;;5.85;;
37593;SDS011;23441;50.856;6.076;2023-04-25T04:18:19;16.90;;;5.95;;
37593;SDS011;23441;50.856;6.076;2023-04-25T04:20:44;17.90;;;5.78;;
37593;SDS011;23441;50.856;6.076;2023-04-25T04:23:10;19.00;;;5.93;;
37593;SDS011;23441;50.856;6.076;2023-04-25T04:25:36;18.92;;;5.72;;
37593;SDS011;23441;50.856;6.076;2023-04-25T04:28:02;30.85;;;6.88;;
37593;SDS011;23441;50.856;6.076;2023-04-25T04:30:28;17.52;;;6.20;;
37593;SDS011;23441;50.856;6.076;2023-04-25T04:32:56;21.42;;;6.97;;
37593;SDS011;23441;50.856;6.076;2023-04-25T04:35:23;24.00;;;6.15;;
37593;SDS011;23441;50.856;6.076;2023-04-25T04:37:48;27.45;;;6.57;;
37593;SDS011;23441;50.856;6.076;2023-04-25T04:40:14;26.73;;;7.30;;
37593;SDS011;23441;50.856;6.076;2023-04-25T04:42:41;19.98;;;6.22;;
37593;SDS011;23441;50.856;6.076;2023-04-25T04:45:07;19.60;;;5.32;;
37593;SDS011;23441;50.856;6.076;2023-04-25T04:47:33;23.65;;;5.95;;
37593;SDS011;23441;50.856;6.076;2023-04-25T04:50:02;17.70;;;6.20;;
37593;SDS011;23441;50.856;6.076;2023-04-25T04:52:29;21.27;;;7.00;;
37593;SDS011;23441;50.856;6.076;2023-04-25T04:54:55;24.83;;;5.97;;
37593;SDS011;23441;50.856;6.076;2023-04-25T04:57:20;19.92;;;6.10;;
37593;SDS011;23441;50.856;6.076;2023-04-25T04:59:46;22.30;;;6.03;;
37593;SDS011;23441;50.856;6.076;2023-04-25T05:02:12;19.05;;;5.55;;
37593;SDS011;23441;50.856;6.076;2023-04-25T05:04:37;22.90;;;5.15;;
37593;SDS011;23441;50.856;6.076;2023-04-25T05:07:03;15.30;;;5.07;;
37593;SDS011;23441;50.856;6.076;2023-04-25T05:09:28;20.48;;;5.80;;
37593;SDS011;23441;50.856;6.076;2023-04-25T05:11:54;21.77;;;5.82;;
37593;SDS011;23441;50.856;6.076;2023-04-25T05:14:20;22.02;;;6.45;;
37593;SDS011;23441;50.856;6.076;2023-04-25T05:16:46;22.65;;;5.43;;
37593;SDS011;23441;50.856;6.076;2023-04-25T05:19:12;23.38;;;5.50;;
37593;SDS011;23441;50.856;6.076;2023-04-25T05:21:38;20.90;;;6.88;;
37593;SDS011;23441;50.856;6.076;2023-04-25T05:24:03;25.02;;;6.53;;
37593;SDS011;23441;50.856;6.076;2023-04-25T05:26:29;33.20;;;6.65;;
37593;SDS011;23441;50.856;6.076;2023-04-25T05:28:56;20.42;;;6.72;;
37593;SDS011;23441;50.856;6.076;2023-04-25T05:31:22;22.73;;;6.07;;
37593;SDS011;23441;50.856;6.076;2023-04-25T05:33:48;22.55;;;6.60;;
37593;SDS011;23441;50.856;6.076;2023-04-25T05:36:14;24.10;;;6.38;;
37593;SDS011;23441;50.856;6.076;2023-04-25T05:38:39;21.10;;;6.65;;
37593;SDS011;23441;50.856;6.076;2023-04-25T05:41:05;25.73;;;5.85;;
37593;SDS011;23441;50.856;6.076;2023-04-25T05:43:30;18.35;;;5.60;;
37593;SDS011;23441;50.856;6.076;2023-04-25T05:45:56;20.70;;;5.90;;
37593;SDS011;23441;50.856;6.076;2023-04-25T05:48:21;19.40;;;5.13;;
37593;SDS011;23441;50.856;6.076;2023-04-25T05:50:47;20.02;;;5.70;;
37593;SDS011;23441;50.856;6.076;2023-04-25T05:53:13;15.45;;;5.97;;
37593;SDS011;23441;50.856;6.076;2023-04-25T05:55:38;22.80;;;5.82;;
37593;SDS011;23441;50.856;6.076;2023-04-25T05:58:05;22.60;;;5.97;;
37593;SDS011;23441;50.856;6.076;2023-04-25T06:00:31;18.35;;;5.63;;
37593;SDS011;23441;50.856;6.076;2023-04-25T06:02:56;21.83;;;5.75;;
37593;SDS011;23441;50.856;6.076;2023-04-25T06:05:22;26.65;;;5.72;;
37593;SDS011;23441;50.856;6.076;2023-04-25T06:07:48;17.05;;;5.13;;
37593;SDS011;23441;50.856;6.076;2023-04-25T06:10:14;24.30;;;5.45;;
37593;SDS011;23441;50.856;6.076;2023-04-25T06:12:40;17.13;;;5.78;;
37593;SDS011;23441;50.856;6.076;2023-04-25T06:15:05;18.90;;;5.07;;
37593;SDS011;23441;50.856;6.076;2023-04-25T06:17:32;19.33;;;5.55;;
37593;SDS011;23441;50.856;6.076;2023-04-25T06:19:58;12.18;;;5.20;;
37593;SDS011;23441;50.856;6.076;2023-04-25T06:22:23;16.10;;;4.70;;
37593;SDS011;23441;50.856;6.076;2023-04-25T06:24:49;16.50;;;4.93;;
37593;SDS011;23441;50.856;6.076;2023-04-25T06:27:14;16.10;;;4.80;;
37593;SDS011;23441;50.856;6.076;2023-04-25T06:29:40;17.42;;;4.65;;
37593;SDS011;23441;50.856;6.076;2023-04-25T06:32:06;18.40;;;4.70;;
37593;SDS011;23441;50.856;6.076;2023-04-25T06:34:31;18.35;;;5.00;;
37593;SDS011;23441;50.856;6.076;2023-04-25T06:36:57;24.92;;;5.20;;
37593;SDS011;23441;50.856;6.076;2023-04-25T06:39:22;18.27;;;5.22;;
37593;SDS011;23441;50.856;6.076;2023-04-25T06:41:49;15.23;;;4.25;;
37593;SDS011;23441;50.856;6.076;2023-04-25T06:44:15;17.27;;;4.70;;
37593;SDS011;23441;50.856;6.076;2023-04-25T06:46:41;14.68;;;4.45;;
37593;SDS011;23441;50.856;6.076;2023-04-25T06:49:06;17.15;;;4.07;;
37593;SDS011;23441;50.856;6.076;2023-04-25T06:51:32;11.13;;;3.67;;
37593;SDS011;23441;50.856;6.076;2023-04-25T06:53:58;14.85;;;4.00;;
37593;SDS011;23441;50.856;6.076;2023-04-25T06:56:24;19.65;;;4.53;;
37593;SDS011;23441;50.856;6.076;2023-04-25T06:58:50;15.13;;;4.25;;
37593;SDS011;23441;50.856;6.076;2023-04-25T07:01:16;19.15;;;4.57;;
37593;SDS011;23441;50.856;6.076;2023-04-25T07:03:41;15.15;;;4.57;;
37593;SDS011;23441;50.856;6.076;2023-04-25T07:06:07;21.40;;;5.00;;
37593;SDS011;23441;50.856;6.076;2023-04-25T07:08:33;22.02;;;5.60;;
37593;SDS011;23441;50.856;6.076;2023-04-25T07:10:58;17.98;;;4.25;;
37593;SDS011;23441;50.856;6.076;2023-04-25T07:13:24;17.77;;;4.35;;
37593;SDS011;23441;50.856;6.076;2023-04-25T07:15:50;23.52;;;4.88;;
37593;SDS011;23441;50.856;6.076;2023-04-25T07:18:16;20.33;;;4.53;;
37593;SDS011;23441;50.856;6.076;2023-04-25T07:20:41;10.90;;;3.97;;
37593;SDS011;23441;50.856;6.076;2023-04-25T07:23:07;14.02;;;3.97;;
37593;SDS011;23441;50.856;6.076;2023-04-25T07:25:32;16.25;;;3.88;;
37593;SDS011;23441;50.856;6.076;2023-04-25T07:27:58;15.43;;;5.47;;
37593;SDS011;23441;50.856;6.076;2023-04-25T07:30:24;14.10;;;3.63;;
37593;SDS011;23441;50.856;6.076;2023-04-25T07:32:50;17.33;;;4.53;;
37593;SDS011;23441;50.856;6.076;2023-04-25T07:35:16;13.85;;;4.18;;
37593;SDS011;23441;50.856;6.076;2023-04-25T07:37:42;13.68;;;3.78;;
37593;SDS011;23441;50.856;6.076;2023-04-25T07:40:08;13.50;;;3.47;;
37593;SDS011;23441;50.856;6.076;2023-04-25T07:42:34;9.75;;;3.78;;
37593;SDS011;23441;50.856;6.076;2023-04-25T07:45:00;15.52;;;4.15;;
37593;SDS011;23441;50.856;6.076;2023-04-25T07:47:26;13.63;;;3.58;;
37593;SDS011;23441;50.856;6.076;2023-04-25T07:49:52;9.02;;;3.35;;
37593;SDS011;23441;50.856;6.076;2023-04-25T07:52:17;16.08;;;3.50;;
37593;SDS011;23441;50.856;6.076;2023-04-25T07:54:43;14.52;;;4.03;;
37593;SDS011;23441;50.856;6.076;2023-04-25T07:57:09;16.60;;;4.30;;
37593;SDS011;23441;50.856;6.076;2023-04-25T07:59:34;13.85;;;5.18;;
37593;SDS011;23441;50.856;6.076;2023-04-25T08:02:00;13.82;;;3.08;;
37593;SDS011;23441;50.856;6.076;2023-04-25T08:04:27;13.18;;;3.47;;
37593;SDS011;23441;50.856;6.076;2023-04-25T08:06:53;18.60;;;4.32;;
37593;SDS011;23441;50.856;6.076;2023-04-25T08:09:19;17.85;;;3.65;;
37593;SDS011;23441;50.856;6.076;2023-04-25T08:11:45;10.63;;;3.20;;
37593;SDS011;23441;50.856;6.076;2023-04-25T08:14:11;13.73;;;3.45;;
37593;SDS011;23441;50.856;6.076;2023-04-25T08:16:37;15.88;;;3.67;;
37593;SDS011;23441;50.856;6.076;2023-04-25T08:19:03;11.50;;;3.17;;
37593;SDS011;23441;50.856;6.076;2023-04-25T08:21:28;13.95;;;3.63;;
37593;SDS011;23441;50.856;6.076;2023-04-25T08:23:54;9.10;;;3.03;;
37593;SDS011;23441;50.856;6.076;2023-04-25T08:26:20;10.05;;;3.00;;
37593;SDS011;23441;50.856;6.076;2023-04-25T08:28:46;13.05;;;3.45;;
37593;SDS011;23441;50.856;6.076;2023-04-25T08:31:11;11.30;;;2.83;;
37593;SDS011;23441;50.856;6.076;2023-04-25T08:33:37;12.93;;;2.70;;
37593;SDS011;23441;50.856;6.076;2023-04-25T08:36:03;10.80;;;3.15;;
37593;SDS011;23441;50.856;6.076;2023-04-25T08:38:28;13.43;;;2.85;;
37593;SDS011;23441;50.856;6.076;2023-04-25T08:40:54;11.35;;;2.53;;
37593;SDS011;23441;50.856;6.076;2023-04-25T08:43:21;10.05;;;2.88;;
37593;SDS011;23441;50.856;6.076;2023-04-25T08:45:51;10.85;;;2.90;;
37593;SDS011;23441;50.856;6.076;2023-04-25T08:48:21;10.45;;;2.60;;
37593;SDS011;23441;50.856;6.076;2023-04-25T08:50:53;5.95;;;2.60;;
37593;SDS011;23441;50.856;6.076;2023-04-25T08:53:25;9.77;;;2.63;;
37593;SDS011;23441;50.856;6.076;2023-04-25T08:55:55;8.18;;;2.40;;
37593;SDS011;23441;50.856;6.076;2023-04-25T08:58:22;6.68;;;2.38;;
37593;SDS011;23441;50.856;6.076;2023-04-25T09:00:49;5.78;;;2.25;;
37593;SDS011;23441;50.856;6.076;2023-04-25T09:03:16;7.28;;;2.35;;
37593;SDS011;23441;50.856;6.076;2023-04-25T09:05:42;5.93;;;2.35;;
37593;SDS011;23441;50.856;6.076;2023-04-25T09:08:08;8.35;;;2.40;;
37593;SDS011;23441;50.856;6.076;2023-04-25T09:10:34;11.73;;;2.42;;
37593;SDS011;23441;50.856;6.076;2023-04-25T09:16:01;11.98;;;2.78;;
37593;SDS011;23441;50.856;6.076;2023-04-25T09:18:27;7.40;;;2.30;;
37593;SDS011;23441;50.856;6.076;2023-04-25T09:20:55;9.88;;;2.70;;
37593;SDS011;23441;50.856;6.076;2023-04-25T09:23:22;13.25;;;3.28;;
37593;SDS011;23441;50.856;6.076;2023-04-25T09:25:52;10.50;;;3.20;;
37593;SDS011;23441;50.856;6.076;2023-04-25T09:28:25;7.78;;;2.80;;
37593;SDS011;23441;50.856;6.076;2023-04-25T09:30:55;8.82;;;3.10;;
37593;SDS011;23441;50.856;6.076;2023-04-25T09:33:26;12.90;;;3.17;;
37593;SDS011;23441;50.856;6.076;2023-04-25T09:35:54;10.07;;;2.85;;
37593;SDS011;23441;50.856;6.076;2023-04-25T09:38:31;12.23;;;3.40;;
37593;SDS011;23441;50.856;6.076;2023-04-25T09:40:57;6.72;;;3.40;;
37593;SDS011;23441;50.856;6.076;2023-04-25T09:43:23;7.93;;;2.72;;
37593;SDS011;23441;50.856;6.076;2023-04-25T09:45:50;11.15;;;3.35;;
37593;SDS011;23441;50.856;6.076;2023-04-25T09:48:18;11.93;;;3.85;;
37593;SDS011;23441;50.856;6.076;2023-04-25T09:50:45;12.35;;;3.58;;
37593;SDS011;23441;50.856;6.076;2023-04-25T09:53:28;14.38;;;3.80;;
37593;SDS011;23441;50.856;6.076;2023-04-25T09:55:55;8.40;;;3.67;;
37593;SDS011;23441;50.856;6.076;2023-04-25T09:58:21;14.35;;;4.18;;
37593;SDS011;23441;50.856;6.076;2023-04-25T10:00:50;8.55;;;3.20;;
37593;SDS011;23441;50.856;6.076;2023-04-25T10:03:20;9.95;;;3.38;;
37593;SDS011;23441;50.856;6.076;2023-04-25T10:05:47;13.25;;;3.70;;
37593;SDS011;23441;50.856;6.076;2023-04-25T10:08:14;11.65;;;4.10;;
37593;SDS011;23441;50.856;6.076;2023-04-25T10:10:41;11.65;;;3.40;;
37593;SDS011;23441;50.856;6.076;2023-04-25T10:13:07;10.40;;;3.42;;
37593;SDS011;23441;50.856;6.076;2023-04-25T10:15:36;14.15;;;3.58;;
37593;SDS011;23441;50.856;6.076;2023-04-25T10:18:02;11.23;;;3.28;;
37593;SDS011;23441;50.856;6.076;2023-04-25T10:20:29;13.23;;;3.35;;
37593;SDS011;23441;50.856;6.076;2023-04-25T10:22:55;10.65;;;3.13;;
37593;SDS011;23441;50.856;6.076;2023-04-25T10:25:32;8.00;;;3.38;;
37593;SDS011;23441;50.856;6.076;2023-04-25T10:27:59;12.30;;;3.58;;
37593;SDS011;23441;50.856;6.076;2023-04-25T10:30:26;11.25;;;3.50;;
37593;SDS011;23441;50.856;6.076;2023-04-25T10:32:51;10.30;;;3.25;;
37593;SDS011;23441;50.856;6.076;2023-04-25T10:35:27;10.93;;;3.50;;
37593;SDS011;23441;50.856;6.076;2023-04-25T10:40:38;11.95;;;3.58;;
37593;SDS011;23441;50.856;6.076;2023-04-25T10:45:59;9.48;;;3.70;;
37593;SDS011;23441;50.856;6.076;2023-04-25T10:48:25;9.27;;;3.67;;
37593;SDS011;23441;50.856;6.076;2023-04-25T10:51:11;8.45;;;2.80;;
37593;SDS011;23441;50.856;6.076;2023-04-25T10:53:40;10.38;;;3.20;;
37593;SDS011;23441;50.856;6.076;2023-04-25T10:56:48;11.27;;;3.17;;
37593;SDS011;23441;50.856;6.076;2023-04-25T10:59:07;17.13;;;3.72;;
37593;SDS011;23441;50.856;6.076;2023-04-25T11:04:19;10.23;;;3.10;;
37593;SDS011;23441;50.856;6.076;2023-04-25T11:09:35;10.68;;;3.28;;
37593;SDS011;23441;50.856;6.076;2023-04-25T11:12:03;10.65;;;3.70;;
37593;SDS011;23441;50.856;6.076;2023-04-25T11:14:29;7.07;;;3.63;;
37593;SDS011;23441;50.856;6.076;2023-04-25T11:16:58;8.68;;;3.08;;
37593;SDS011;23441;50.856;6.076;2023-04-25T11:19:25;8.70;;;3.35;;
37593;SDS011;23441;50.856;6.076;2023-04-25T11:21:54;8.45;;;2.92;;
37593;SDS011;23441;50.856;6.076;2023-04-25T11:24:31;8.90;;;3.30;;
37593;SDS011;23441;50.856;6.076;2023-04-25T11:27:01;10.80;;;2.78;;
37593;SDS011;23441;50.856;6.076;2023-04-25T11:29:30;4.90;;;2.33;;
37593;SDS011;23441;50.856;6.076;2023-04-25T11:31:57;8.88;;;2.60;;
37593;SDS011;23441;50.856;6.076;2023-04-25T11:34:29;7.50;;;2.83;;
37593;SDS011;23441;50.856;6.076;2023-04-25T11:36:58;8.95;;;3.08;;
37593;SDS011;23441;50.856;6.076;2023-04-25T11:39:24;7.25;;;2.53;;
37593;SDS011;23441;50.856;6.076;2023-04-25T11:41:51;10.40;;;2.72;;
37593;SDS011;23441;50.856;6.076;2023-04-25T11:44:18;8.27;;;2.40;;
37593;SDS011;23441;50.856;6.076;2023-04-25T11:46:44;12.50;;;2.90;;
37593;SDS011;23441;50.856;6.076;2023-04-25T11:49:11;12.27;;;3.35;;
37593;SDS011;23441;50.856;6.076;2023-04-25T11:51:40;16.50;;;3.20;;
37593;SDS011;23441;50.856;6.076;2023-04-25T11:54:06;10.23;;;3.05;;
37593;SDS011;23441;50.856;6.076;2023-04-25T11:56:32;7.90;;;2.45;;
37593;SDS011;23441;50.856;6.076;2023-04-25T11:59:05;11.10;;;2.65;;
37593;SDS011;23441;50.856;6.076;2023-04-25T12:01:32;8.82;;;2.40;;
37593;SDS011;23441;50.856;6.076;2023-04-25T12:04:09;10.05;;;2.88;;
37593;SDS011;23441;50.856;6.076;2023-04-25T12:06:42;9.50;;;3.00;;
37593;SDS011;23441;50.856;6.076;2023-04-25T12:09:10;9.98;;;2.78;;
37593;SDS011;23441;50.856;6.076;2023-04-25T12:14:32;10.27;;;3.38;;
37593;SDS011;23441;50.856;6.076;2023-04-25T12:17:00;8.63;;;3.05;;
37593;SDS011;23441;50.856;6.076;2023-04-25T12:19:33;11.40;;;6.22;;
37593;SDS011;23441;50.856;6.076;2023-04-25T12:22:03;12.32;;;4.65;;
37593;SDS011;23441;50.856;6.076;2023-04-25T12:24:47;12.15;;;5.47;;
37593;SDS011;23441;50.856;6.076;2023-04-25T12:27:14;14.55;;;8.18;;
37593;SDS011;23441;50.856;6.076;2023-04-25T12:29:50;12.32;;;8.60;;
37593;SDS011;23441;50.856;6.076;2023-04-25T12:32:17;12.60;;;5.47;;
37593;SDS011;23441;50.856;6.076;2023-04-25T12:34:43;6.32;;;2.53;;
37593;SDS011;23441;50.856;6.076;2023-04-25T12:37:09;9.23;;;3.10;;
37593;SDS011;23441;50.856;6.076;2023-04-25T12:39:36;10.00;;;3.67;;
37593;SDS011;23441;50.856;6.076;2023-04-25T12:42:01;13.68;;;5.28;;
37593;SDS011;23441;50.856;6.076;2023-04-25T12:44:28;6.25;;;2.88;;
37593;SDS011;23441;50.856;6.076;2023-04-25T12:46:54;8.45;;;2.80;;
37593;SDS011;23441;50.856;6.076;2023-04-25T12:49:20;7.40;;;2.38;;
37593;SDS011;23441;50.856;6.076;2023-04-25T12:51:45;8.63;;;2.40;;
37593;SDS011;23441;50.856;6.076;2023-04-25T12:54:11;7.68;;;2.58;;
37593;SDS011;23441;50.856;6.076;2023-04-25T12:56:39;11.32;;;2.85;;
37593;SDS011;23441;50.856;6.076;2023-04-25T12:59:06;5.53;;;2.42;;
37593;SDS011;23441;50.856;6.076;2023-04-25T13:01:31;6.35;;;2.78;;
37593;SDS011;23441;50.856;6.076;2023-04-25T13:03:57;9.23;;;2.30;;
37593;SDS011;23441;50.856;6.076;2023-04-25T13:06:23;9.50;;;2.70;;
37593;SDS011;23441;50.856;6.076;2023-04-25T13:08:49;5.63;;;2.50;;
37593;SDS011;23441;50.856;6.076;2023-04-25T13:11:15;7.78;;;2.80;;
37593;SDS011;23441;50.856;6.076;2023-04-25T13:13:40;10.68;;;2.50;;
37593;SDS011;23441;50.856;6.076;2023-04-25T13:16:08;8.88;;;2.60;;
37593;SDS011;23441;50.856;6.076;2023-04-25T13:18:34;7.35;;;2.55;;
37593;SDS011;23441;50.856;6.076;2023-04-25T13:21:00;8.55;;;2.53;;
37593;SDS011;23441;50.856;6.076;2023-04-25T13:23:26;8.55;;;2.47;;
37593;SDS011;23441;50.856;6.076;2023-04-25T13:25:53;9.85;;;3.63;;
37593;SDS011;23441;50.856;6.076;2023-04-25T13:28:20;15.93;;;2.63;;
37593;SDS011;23441;50.856;6.076;2023-04-25T13:30:46;9.65;;;3.03;;
37593;SDS011;23441;50.856;6.076;2023-04-25T13:33:13;6.47;;;2.83;;
37593;SDS011;23441;50.856;6.076;2023-04-25T13:35:39;6.20;;;2.17;;
37593;SDS011;23441;50.856;6.076;2023-04-25T13:38:05;7.15;;;2.22;;
37593;SDS011;23441;50.856;6.076;2023-04-25T13:40:31;7.15;;;2.03;;
37593;SDS011;23441;50.856;6.076;2023-04-25T13:42:57;7.25;;;2.08;;
37593;SDS011;23441;50.856;6.076;2023-04-25T13:45:24;5.20;;;2.55;;
37593;SDS011;23441;50.856;6.076;2023-04-25T13:47:49;7.68;;;2.33;;
37593;SDS011;23441;50.856;6.076;2023-04-25T13:50:16;4.88;;;2.53;;
37593;SDS011;23441;50.856;6.076;2023-04-25T13:52:42;5.95;;;2.00;;
37593;SDS011;23441;50.856;6.076;2023-04-25T13:55:08;6.30;;;2.13;;
37593;SDS011;23441;50.856;6.076;2023-04-25T13:57:34;4.97;;;2.28;;
37593;SDS011;23441;50.856;6.076;2023-04-25T14:00:01;7.28;;;2.50;;
37593;SDS011;23441;50.856;6.076;2023-04-25T14:02:33;5.20;;;2.67;;
37593;SDS011;23441;50.856;6.076;2023-04-25T14:05:05;7.60;;;2.25;;
37593;SDS011;23441;50.856;6.076;2023-04-25T14:07:32;8.95;;;3.30;;
37593;SDS011;23441;50.856;6.076;2023-04-25T14:10:00;7.38;;;2.45;;
37593;SDS011;23441;50.856;6.076;2023-04-25T14:12:26;7.40;;;2.95;;
37593;SDS011;23441;50.856;6.076;2023-04-25T14:14:51;7.82;;;2.47;;
37593;SDS011;23441;50.856;6.076;2023-04-25T14:17:18;12.30;;;2.95;;
37593;SDS011;23441;50.856;6.076;2023-04-25T14:19:45;10.30;;;2.50;;
37593;SDS011;23441;50.856;6.076;2023-04-25T14:22:13;9.95;;;2.50;;
37593;SDS011;23441;50.856;6.076;2023-04-25T14:24:40;11.60;;;2.67;;
37593;SDS011;23441;50.856;6.076;2023-04-25T14:27:05;4.63;;;2.47;;
37593;SDS011;23441;50.856;6.076;2023-04-25T14:29:31;7.68;;;2.78;;
37593;SDS011;23441;50.856;6.076;2023-04-25T14:31:57;5.72;;;2.88;;
37593;SDS011;23441;50.856;6.076;2023-04-25T14:34:24;5.60;;;2.50;;
37593;SDS011;23441;50.856;6.076;2023-04-25T14:36:50;5.90;;;2.50;;
37593;SDS011;23441;50.856;6.076;2023-04-25T14:39:17;8.05;;;2.92;;
37593;SDS011;23441;50.856;6.076;2023-04-25T14:41:43;6.07;;;2.45;;
37593;SDS011;23441;50.856;6.076;2023-04-25T14:44:09;5.50;;;2.60;;
37593;SDS011;23441;50.856;6.076;2023-04-25T14:46:35;8.63;;;2.63;;
37593;SDS011;23441;50.856;6.076;2023-04-25T14:49:01;8.18;;;2.75;;
37593;SDS011;23441;50.856;6.076;2023-04-25T14:51:27;7.03;;;2.30;;